Kortrijk, Belgium
Current Conditions -  °F | °C
As of 12:30 AM on Thursday 23 Oct 2014 (Local Time) from LFQQ Reporting Station
Clear Clear  
Wind Chill: 10°   Ceiling: Unl
Heat Index: 10°   Visibility: 6mi
Dew Point:   Wind: 6mph
Humidity: 82%   Direction: 240°WSW
Pressure: 30.24"   Gusts: NA
Location:  50.83°N, 3.26°E
Report Text: LFQQ 222230Z AUTO 24005KT 9999 NSC 10/07 Q1024
Loading
Personal Weather Stations






























Interactive Weather Map
Tropical Storm Tracking
New forecast layout! Learn more

10-Day Weather Forecast

Advertisements
Track Severe Weather on mobile